Aérodrome :
LOGIN :

S'inscrire | Disclaimer

   EN    FR    IT 

 










Légende :    VFR   VFR Marginal   IFR   IFR Intensif   IFR Très Intensif
Visi : 
Plafond : 
>= 8 km
>= 3000ft
5 à 8 km
1000 à 3000 ft
1500m à 5 km
500 à 1000 ft
800 à 1500m
200 à 500 ft
< 800m
< 200 ft
Symboles :   Orages  Brouillard  Fortes neiges  Fortes précipitations  Vent > 20 kt
SIGMETs :   Divers  Orages  Givrage  Turbulence  Onde Orograph.  Cendres Volcan.






- Altitude de l'aérodrome : 112 ft
- Code IATA : KIR


EIKY - Kerry Farranfore

DERNIER METAR :
  • 071530Z 26012KT 9999 -RA OVC006 15/15 Q1016

METARs EXPIRÉS :
  • 071500Z 26012G22KT 240V300 9999 -RA OVC006 15/14 Q1016
  • 071430Z 26012G22KT 7000 -RA OVC006 15/14 Q1016
  • 071400Z 26016KT 9999 OVC007 16/15 Q1016
  • 071330Z 26018KT 9999 BKN008 OVC016 16/15 Q1016
  • 071300Z 26019KT 9999 BKN007 OVC016 16/15 Q1016
  • 071230Z 27016KT 230V300 5000 -RA BKN007 OVC013 16/15 Q1016

TAF TAF EIKY
Valide du 07 à 15h jusqu'au 08 à 00h UTC


071400Z 0715/0724 24015G25KT 8000 -RA BKN007 OVC013
TEMPO 0715/0721 3000 -RADZ OVC005
BECMG 0717/0719 25010KT



MET'MAP, la Météo Aéronautique d'un coup d'oeil ! - Copyright ORBIFLY Décembre 2007 - Disclaimer

ORBIFLY MET'MAP TEAM :

Programmation & Développement : Alexandra Zaïnal
Sur une idée originale de : Baudouin d'Aumeries
Assistance à la programmation : Marc-Olivier Méhu
Soutien technique & logistique : Manuel Goepfert

Contact : metmap@orbifly.com




SOURCES & CREDITS :

   NOAA